Time;durP1;ratioP1;P1;durP2;ratioP2;P2;SDS_P1;SDS_P2;PMS_P1;PMS_P2;Temp;Humidity;BMP_temperature;BMP_pressure;BME280_temperature;BME280_humidity;BME280_pressure;Samples;Min_cycle;Max_cycle;Signal;HPM_P1;HPM_P2
2022/11/26 00:09:05;;;;;;;0.32;0.10;;;5.10;91.20;;;;;;20147977;23;20469;-56
2022/11/26 00:19:07;;;;;;;2.05;0.30;;;5.10;91.30;;;;;;20229760;23;20095;-58
2022/11/26 00:29:09;;;;;;;0.20;0.00;;;5.00;90.70;;;;;;20260562;23;20528;-57
2022/11/26 00:39:16;;;;;;;0.10;0.10;;;5.10;91.30;;;;;;20228411;23;20523;-54
2022/11/26 00:49:19;;;;;;;0.50;0.03;;;5.00;91.20;;;;;;20271508;23;20045;-58
2022/11/26 00:59:38;;;;;;;0.52;0.10;;;5.10;91.90;;;;;;20176329;23;20490;-56
2022/11/26 01:09:43;;;;;;;0.20;0.00;;;5.30;92.60;;;;;;20218880;23;20141;-57
2022/11/26 01:19:45;;;;;;;0.30;0.05;;;5.10;93.20;;;;;;20267641;23;20122;-57
2022/11/26 01:29:47;;;;;;;0.10;0.10;;;5.00;93.20;;;;;;20252760;23;20114;-54
2022/11/26 01:39:50;;;;;;;0.10;0.00;;;5.00;93.00;;;;;;20270556;23;20058;-59
2022/11/26 01:50:27;;;;;;;0.22;0.05;;;5.20;93.40;;;;;;20248286;23;20053;-57
2022/11/26 02:00:30;;;;;;;1.55;0.10;;;5.00;93.50;;;;;;20218818;23;20063;-57
2022/11/26 02:11:16;;;;;;;0.35;0.10;;;5.00;93.70;;;;;;20175445;23;20055;-58
2022/11/26 02:21:27;;;;;;;0.68;0.20;;;4.70;94.00;;;;;;20242563;23;20073;-57
2022/11/26 02:31:55;;;;;;;0.50;0.20;;;4.60;94.20;;;;;;20173409;23;20054;-59
2022/11/26 02:42:26;;;;;;;0.38;0.00;;;4.60;94.70;;;;;;20192648;23;20057;-60
2022/11/26 02:52:35;;;;;;;0.30;0.10;;;4.40;95.50;;;;;;20803304;23;20057;31
2022/11/26 03:03:00;;;;;;;0.40;0.10;;;4.30;95.80;;;;;;20179919;23;20121;-58
2022/11/26 03:13:02;;;;;;;0.20;0.10;;;4.40;95.70;;;;;;20099878;23;20386;-59
2022/11/26 03:23:05;;;;;;;0.20;0.10;;;4.30;95.40;;;;;;20225375;23;20053;-55
2022/11/26 03:33:08;;;;;;;0.10;0.00;;;4.50;94.80;;;;;;20236487;23;20507;-58
2022/11/26 03:43:10;;;;;;;0.80;0.10;;;4.40;94.70;;;;;;20235453;23;20057;-58
2022/11/26 03:53:13;;;;;;;0.10;0.08;;;4.30;95.30;;;;;;21816087;23;20050;-56
2022/11/26 04:03:15;;;;;;;0.10;0.00;;;4.10;95.60;;;;;;20195258;23;20098;-55
2022/11/26 04:13:18;;;;;;;0.20;0.10;;;4.20;95.60;;;;;;20251986;23;20053;-51
2022/11/26 04:23:20;;;;;;;0.20;0.10;;;4.10;95.70;;;;;;20250579;23;20091;-55
2022/11/26 04:33:25;;;;;;;0.03;0.00;;;4.00;96.00;;;;;;20183359;24;20057;-59
2022/11/26 04:43:28;;;;;;;0.10;0.00;;;3.90;95.90;;;;;;20271756;23;20058;-57
2022/11/26 04:53:31;;;;;;;0.10;0.03;;;3.90;96.20;;;;;;20119760;23;20066;-57
2022/11/26 05:04:07;;;;;;;0.35;0.10;;;3.70;95.90;;;;;;20836762;23;20032;31
2022/11/26 05:14:09;;;;;;;0.30;0.00;;;3.60;95.60;;;;;;20154215;23;20102;-59
2022/11/26 05:24:12;;;;;;;0.10;0.00;;;3.70;95.00;;;;;;20254884;23;20069;-51
2022/11/26 05:34:14;;;;;;;0.47;0.10;;;3.60;95.10;;;;;;20260253;23;20057;-57
2022/11/26 05:44:16;;;;;;;0.47;0.10;;;3.40;94.60;;;;;;20237499;23;20028;-57
2022/11/26 05:54:30;;;;;;;0.10;0.00;;;3.30;96.00;;;;;;20164862;23;1351418;-50
2022/11/26 06:04:33;;;;;;;0.30;0.10;;;2.90;96.70;;;;;;20198574;23;20057;-55
2022/11/26 06:14:35;;;;;;;0.68;0.08;;;2.70;96.30;;;;;;20248164;23;20477;-57
2022/11/26 06:24:37;;;;;;;1.30;0.10;;;2.90;95.50;;;;;;20232968;23;20118;-55
2022/11/26 06:34:40;;;;;;;0.20;0.10;;;3.30;94.50;;;;;;20242838;23;20054;-47
2022/11/26 06:44:43;;;;;;;0.50;0.00;;;3.50;94.20;;;;;;20249370;23;20397;-58
2022/11/26 06:54:46;;;;;;;0.20;0.00;;;3.80;93.50;;;;;;20189934;23;20078;-57
2022/11/26 07:04:48;;;;;;;0.55;0.00;;;3.80;93.60;;;;;;20204534;23;20529;-57
2022/11/26 07:14:51;;;;;;;0.47;0.08;;;3.90;92.90;;;;;;20233841;23;20058;-56
2022/11/26 07:24:53;;;;;;;0.95;0.10;;;4.10;92.00;;;;;;20215552;23;20122;-56
2022/11/26 07:34:55;;;;;;;0.63;0.10;;;4.10;92.20;;;;;;20204920;23;20436;-60
2022/11/26 07:44:58;;;;;;;0.28;0.00;;;4.60;91.40;;;;;;20182071;23;20477;-54
2022/11/26 07:55:01;;;;;;;0.57;0.10;;;4.90;90.60;;;;;;20238869;23;20124;-59
2022/11/26 08:05:04;;;;;;;0.05;0.00;;;5.10;90.50;;;;;;20244214;23;20119;-54
2022/11/26 08:15:07;;;;;;;0.25;0.00;;;5.50;89.20;;;;;;20246954;23;20054;-52
2022/11/26 08:25:10;;;;;;;0.32;0.10;;;5.70;88.50;;;;;;20259677;23;20045;-56
2022/11/26 08:35:12;;;;;;;0.10;0.00;;;5.60;90.50;;;;;;20136007;24;20057;-57
2022/11/26 08:45:15;;;;;;;0.20;0.10;;;6.00;87.80;;;;;;20698583;23;20066;-56
2022/11/26 08:55:18;;;;;;;0.20;0.03;;;6.10;88.50;;;;;;20331267;23;20389;-54
2022/11/26 09:05:20;;;;;;;0.40;0.10;;;6.30;88.80;;;;;;20206572;23;20050;-56
2022/11/26 09:15:23;;;;;;;0.52;0.10;;;6.40;87.90;;;;;;20258113;23;20089;-61
2022/11/26 09:25:25;;;;;;;3.13;0.10;;;6.40;88.80;;;;;;20145454;23;20071;-57
2022/11/26 09:35:41;;;;;;;0.20;0.00;;;6.80;87.20;;;;;;20121907;23;20065;-60
2022/11/26 09:45:54;;;;;;;0.15;0.00;;;7.00;86.20;;;;;;20218063;23;20137;-53
2022/11/26 09:56:00;;;;;;;0.55;0.10;;;7.00;83.50;;;;;;20215771;23;20062;-56
2022/11/26 10:06:08;;;;;;;3.03;0.32;;;7.30;83.70;;;;;;20191506;23;20057;-58
2022/11/26 10:16:13;;;;;;;0.25;0.00;;;7.00;83.80;;;;;;20207368;24;21835;-55
2022/11/26 10:26:25;;;;;;;0.10;0.00;;;7.20;82.70;;;;;;20138154;24;20059;31
2022/11/26 10:36:49;;;;;;;0.20;0.08;;;7.30;80.90;;;;;;20020957;24;20062;-59
2022/11/26 10:46:51;;;;;;;2.17;0.10;;;7.50;81.60;;;;;;20061987;24;21318;-51
2022/11/26 10:57:00;;;;;;;0.40;0.00;;;7.50;81.20;;;;;;20265972;23;20058;-59
2022/11/26 11:07:02;;;;;;;0.30;0.10;;;7.70;82.10;;;;;;20200129;23;20178;-61
2022/11/26 11:17:06;;;;;;;0.35;0.20;;;7.70;79.60;;;;;;20121123;24;20069;-61
2022/11/26 11:27:25;;;;;;;0.10;0.00;;;7.50;79.80;;;;;;20182916;23;20053;-54
2022/11/26 11:37:30;;;;;;;0.40;0.10;;;7.50;77.30;;;;;;20192753;23;20062;31
2022/11/26 11:47:58;;;;;;;0.28;0.10;;;7.60;79.20;;;;;;20076275;23;20102;-54
2022/11/26 11:58:37;;;;;;;1.05;0.28;;;7.50;80.60;;;;;;20101478;23;20145;-59
2022/11/26 12:09:04;;;;;;;0.17;0.00;;;7.40;78.90;;;;;;20208437;23;20393;-54
2022/11/26 12:19:33;;;;;;;0.30;0.10;;;7.50;80.60;;;;;;20219896;23;20615;-59
2022/11/26 12:29:43;;;;;;;0.50;0.15;;;7.80;80.80;;;;;;20203512;23;20053;-59
2022/11/26 12:39:54;;;;;;;0.63;0.10;;;7.40;79.90;;;;;;20266913;23;20065;-55
2022/11/26 12:50:05;;;;;;;0.10;0.10;;;7.30;81.90;;;;;;20222131;23;20114;-59
2022/11/26 13:00:12;;;;;;;0.93;0.10;;;7.30;80.90;;;;;;20228673;23;20061;-53
2022/11/26 13:10:32;;;;;;;0.30;0.10;;;6.90;81.40;;;;;;20253617;23;20029;-61
2022/11/26 13:20:56;;;;;;;2.37;0.10;;;6.70;80.20;;;;;;20129118;24;20390;-60
2022/11/26 13:31:43;;;;;;;0.38;0.08;;;6.60;81.20;;;;;;20000923;29;20046;-57
2022/11/26 13:42:17;;;;;;;0.45;0.08;;;6.50;81.20;;;;;;19999496;29;20046;-58
2022/11/26 13:52:21;;;;;;;1.50;0.10;;;6.50;82.10;;;;;;20153972;24;20050;-55
2022/11/26 14:02:35;;;;;;;0.20;0.10;;;6.40;82.60;;;;;;20145225;23;20431;-56
2022/11/26 14:13:02;;;;;;;1.02;0.20;;;6.20;83.30;;;;;;20207821;23;20057;-52
2022/11/26 14:23:43;;;;;;;0.60;0.10;;;6.20;83.00;;;;;;20215629;23;20095;-59
2022/11/26 14:33:48;;;;;;;0.40;0.10;;;6.00;86.10;;;;;;20209243;23;20141;-58
2022/11/26 14:44:04;;;;;;;2.40;0.50;;;5.60;87.70;;;;;;20198097;23;20025;-59
2022/11/26 14:54:19;;;;;;;0.38;0.10;;;5.20;94.30;;;;;;20142448;23;20073;-52
2022/11/26 15:04:25;;;;;;;0.50;0.28;;;4.60;93.30;;;;;;20243069;23;20448;-59
2022/11/26 15:14:38;;;;;;;1.05;0.22;;;3.80;94.30;;;;;;20263514;23;20052;-55
2022/11/26 15:24:41;;;;;;;0.30;0.03;;;3.40;93.80;;;;;;20261522;23;20077;-59
2022/11/26 15:34:44;;;;;;;0.95;0.10;;;2.90;96.80;;;;;;20153642;23;1241300;-66
2022/11/26 15:45:01;;;;;;;1.05;0.15;;;2.40;95.30;;;;;;20201431;23;20053;-55
2022/11/26 15:55:09;;;;;;;0.55;0.10;;;2.30;96.40;;;;;;20210361;23;20122;-58
2022/11/26 16:05:27;;;;;;;1.33;0.10;;;1.90;97.90;;;;;;20265091;23;20050;-55
2022/11/26 16:15:30;;;;;;;0.68;0.10;;;1.90;97.00;;;;;;20912167;23;20154;-56
2022/11/26 16:25:36;;;;;;;1.00;0.10;;;1.70;97.60;;;;;;20228257;23;20053;-59
2022/11/26 16:35:39;;;;;;;0.47;0.10;;;1.40;99.50;;;;;;20262997;23;20438;-51
2022/11/26 16:45:42;;;;;;;0.70;0.20;;;1.10;99.90;;;;;;20292650;23;20100;-60
2022/11/26 16:55:45;;;;;;;0.88;0.10;;;0.90;99.80;;;;;;20198740;23;20061;-59
2022/11/26 17:05:51;;;;;;;0.73;0.20;;;1.00;99.90;;;;;;20238630;23;20101;-52
2022/11/26 17:15:55;;;;;;;0.30;0.10;;;0.70;99.90;;;;;;20213106;23;20061;-60
2022/11/26 17:25:59;;;;;;;0.57;0.20;;;0.40;99.90;;;;;;20232613;23;20057;-54
2022/11/26 17:36:02;;;;;;;6.10;2.40;;;0.30;99.90;;;;;;20222843;23;20411;-60
2022/11/26 17:46:20;;;;;;;1.60;0.60;;;0.20;99.90;;;;;;20228772;23;20122;-59
2022/11/26 17:56:25;;;;;;;0.30;0.10;;;0.20;99.90;;;;;;20191177;23;20114;-54
2022/11/26 18:07:13;;;;;;;0.73;0.10;;;0.10;99.90;;;;;;20263707;23;20057;-60
2022/11/26 18:17:16;;;;;;;0.30;0.05;;;0.10;99.90;;;;;;20173249;23;20057;-53
2022/11/26 18:27:20;;;;;;;0.57;0.10;;;0.10;99.90;;;;;;20260439;23;20515;-60
2022/11/26 18:37:22;;;;;;;3.42;0.25;;;0.20;99.90;;;;;;20226646;23;20140;-55
2022/11/26 18:47:25;;;;;;;0.85;0.05;;;0.30;99.90;;;;;;20270379;23;20050;-58
2022/11/26 18:57:27;;;;;;;0.20;0.08;;;0.70;99.90;;;;;;20229234;23;20090;-53
2022/11/26 19:07:31;;;;;;;0.13;0.10;;;0.90;99.90;;;;;;20219682;23;20131;-55
2022/11/26 19:17:34;;;;;;;0.10;0.05;;;0.80;99.90;;;;;;20239205;23;20118;-59
2022/11/26 19:27:37;;;;;;;0.17;0.08;;;0.50;99.90;;;;;;20252813;23;20057;-54
2022/11/26 19:37:39;;;;;;;0.40;0.10;;;0.40;99.90;;;;;;20224905;23;20114;-54
2022/11/26 19:47:42;;;;;;;0.55;0.10;;;0.30;99.90;;;;;;20221836;23;20078;-53
2022/11/26 19:57:44;;;;;;;0.40;0.10;;;0.10;99.90;;;;;;20200808;23;20094;-52
2022/11/26 20:08:02;;;;;;;0.35;0.10;;;-0.10;99.90;;;;;;20241850;23;20090;-57
2022/11/26 20:18:09;;;;;;;0.45;0.10;;;-0.20;99.90;;;;;;20235335;23;20057;-55
2022/11/26 20:28:12;;;;;;;0.60;0.10;;;-0.40;99.90;;;;;;20239390;23;20058;-57
2022/11/26 20:38:14;;;;;;;0.05;0.00;;;-0.50;99.90;;;;;;20253908;23;20119;-55
2022/11/26 20:48:17;;;;;;;0.22;0.10;;;-0.60;99.90;;;;;;20223482;23;20118;-57
2022/11/26 20:58:21;;;;;;;1.25;0.10;;;-0.60;99.90;;;;;;20178186;23;20447;-55
2022/11/26 21:08:38;;;;;;;0.50;0.10;;;-0.70;99.90;;;;;;20218025;23;20122;-53
2022/11/26 21:18:44;;;;;;;0.13;0.10;;;-0.80;99.90;;;;;;20252771;23;20114;-58
2022/11/26 21:28:54;;;;;;;0.65;0.10;;;-0.80;99.90;;;;;;20228208;23;20061;-54
2022/11/26 21:38:57;;;;;;;0.40;0.15;;;-0.90;99.90;;;;;;20223784;23;20057;-59
2022/11/26 21:48:59;;;;;;;0.60;0.10;;;-1.00;99.90;;;;;;20279126;23;20102;-50
2022/11/26 21:59:34;;;;;;;1.23;0.17;;;-1.10;99.90;;;;;;20211790;23;20061;-54
2022/11/26 22:09:43;;;;;;;0.28;0.10;;;-1.20;99.90;;;;;;20180647;23;20058;31
2022/11/26 22:19:46;;;;;;;0.20;0.10;;;-1.20;99.90;;;;;;20183616;23;20082;-56
2022/11/26 22:29:49;;;;;;;0.55;0.30;;;-1.20;99.90;;;;;;20227346;23;20069;-55
2022/11/26 22:39:51;;;;;;;1.08;0.20;;;-1.30;99.90;;;;;;20250822;23;20061;-53
2022/11/26 22:49:53;;;;;;;0.55;0.20;;;-1.20;99.90;;;;;;20238497;23;20054;-55
2022/11/26 22:59:56;;;;;;;0.38;0.10;;;-1.20;99.90;;;;;;20213011;23;20049;-55
2022/11/26 23:09:58;;;;;;;1.40;0.30;;;-1.20;99.90;;;;;;20184942;23;20058;-55
2022/11/26 23:20:01;;;;;;;0.55;0.25;;;-1.40;99.90;;;;;;20261410;23;20057;-57
2022/11/26 23:30:04;;;;;;;0.57;0.20;;;-1.40;99.90;;;;;;20239473;23;20091;-55
2022/11/26 23:40:08;;;;;;;1.15;0.10;;;-1.50;99.90;;;;;;20219870;23;20122;-58
2022/11/26 23:50:11;;;;;;;0.60;0.15;;;-1.50;99.90;;;;;;20235985;23;20070;-52
